Time;durP1;ratioP1;P1;durP2;ratioP2;P2;SDS_P1;SDS_P2;PMS_P1;PMS_P2;Temp;Humidity;BMP_temperature;BMP_pressure;BME280_temperature;BME280_humidity;BME280_pressure;Samples;Min_cycle;Max_cycle;Signal;HPM_P1;HPM_P2
2022/10/16 00:24:52;;;;;;;3.70;0.63;;;13.30;99.90;;;;;;7403666;19;19914;-87
2022/10/16 00:27:21;;;;;;;2.90;1.00;;;13.30;99.90;;;;;;7401901;19;19945;-87
2022/10/16 00:29:53;;;;;;;2.72;0.80;;;13.20;99.90;;;;;;7406916;19;19922;-88
2022/10/16 00:32:22;;;;;;;3.08;0.60;;;13.20;99.90;;;;;;7403232;19;19984;-87
2022/10/16 00:34:54;;;;;;;7.47;1.10;;;13.30;99.90;;;;;;7403341;19;19935;-88
2022/10/16 00:37:24;;;;;;;5.60;0.93;;;13.30;99.90;;;;;;7403840;19;19914;-88
2022/10/16 00:39:55;;;;;;;2.85;1.42;;;13.30;99.90;;;;;;7403922;19;19948;-87
2022/10/16 00:42:25;;;;;;;6.57;0.80;;;13.30;99.90;;;;;;7403660;19;19927;-87
2022/10/16 00:44:56;;;;;;;5.97;1.30;;;13.30;99.90;;;;;;7404150;19;19926;-88
2022/10/16 00:50:46;;;;;;;4.97;1.00;;;13.30;99.90;;;;;;7403965;19;19930;-88
2022/10/16 00:53:15;;;;;;;4.15;0.60;;;13.20;99.90;;;;;;7403350;19;20269;-87
2022/10/16 00:55:47;;;;;;;3.60;0.95;;;13.10;99.90;;;;;;7402904;19;19914;-88
2022/10/16 00:58:16;;;;;;;3.63;0.60;;;13.10;99.90;;;;;;7407524;19;20271;-88
2022/10/16 01:00:45;;;;;;;;;;;13.10;99.90;;;;;;7405592;19;19915;-88
2022/10/16 01:03:27;;;;;;;3.35;0.90;;;13.10;99.90;;;;;;7402833;19;20340;-87
2022/10/16 01:06:14;;;;;;;4.88;0.95;;;13.10;99.90;;;;;;7403610;19;19914;-88
2022/10/16 01:22:19;;;;;;;2.80;1.10;;;13.20;99.90;;;;;;7402486;19;19926;-87
2022/10/16 01:43:55;;;;;;;3.78;1.13;;;13.20;99.90;;;;;;7400069;19;20305;-88
2022/10/16 01:59:14;;;;;;;4.05;0.88;;;13.50;99.90;;;;;;7402875;19;19910;-88
2022/10/16 02:02:24;;;;;;;5.55;0.40;;;13.50;99.90;;;;;;7399881;19;19921;-88
2022/10/16 02:22:12;;;;;;;3.33;0.98;;;13.60;99.90;;;;;;7398882;19;19965;-88
2022/10/16 02:24:45;;;;;;;;;;;13.60;99.90;;;;;;7403039;19;20001;-88
2022/10/16 02:27:20;;;;;;;3.10;0.88;;;13.60;99.90;;;;;;7403801;19;19919;-88
2022/10/16 02:29:53;;;;;;;5.10;0.98;;;13.50;99.90;;;;;;7401096;19;19915;-88
2022/10/16 02:32:25;;;;;;;4.13;1.15;;;13.50;99.90;;;;;;7400351;19;19945;-88
2022/10/16 02:34:58;;;;;;;2.58;0.40;;;13.50;99.90;;;;;;7398611;19;20284;-87
2022/10/16 02:38:02;;;;;;;3.00;0.50;;;13.60;99.90;;;;;;7400175;19;20289;-88
2022/10/16 02:44:52;;;;;;;2.88;0.63;;;13.60;99.90;;;;;;7400634;19;19919;-88
2022/10/16 02:50:38;;;;;;;3.35;0.73;;;13.50;99.90;;;;;;7399918;19;20317;-88
2022/10/16 02:58:54;;;;;;;3.67;0.95;;;13.60;99.90;;;;;;7400101;19;19918;-88
2022/10/16 03:01:23;;;;;;;5.20;0.93;;;13.70;99.90;;;;;;7399825;19;19925;-88
2022/10/16 03:03:52;;;;;;;2.63;0.85;;;13.80;99.90;;;;;;7400236;19;19914;-88
2022/10/16 03:06:24;;;;;;;2.80;0.82;;;13.80;99.90;;;;;;7400277;19;19915;-88
2022/10/16 03:08:53;;;;;;;4.90;0.57;;;13.80;99.90;;;;;;7399790;19;19978;-88
2022/10/16 03:11:22;;;;;;;2.75;1.08;;;13.80;99.90;;;;;;7399864;19;19919;-88
2022/10/16 03:13:50;;;;;;;3.28;1.08;;;13.80;99.90;;;;;;7399740;19;20002;-88
2022/10/16 03:16:19;;;;;;;2.78;0.50;;;13.90;99.90;;;;;;7400012;19;19924;-89
2022/10/16 03:18:51;;;;;;;3.30;0.70;;;13.90;99.90;;;;;;7402772;19;19915;-88
2022/10/16 03:21:20;;;;;;;2.15;0.90;;;13.90;99.90;;;;;;7403044;19;19918;-88
2022/10/16 03:23:51;;;;;;;2.17;0.40;;;14.00;99.90;;;;;;7402536;19;20261;-88
2022/10/16 03:26:22;;;;;;;2.70;1.10;;;14.00;99.90;;;;;;7405837;19;19918;-88
2022/10/16 03:31:44;;;;;;;2.67;0.77;;;14.00;99.90;;;;;;7409642;19;20332;-88
2022/10/16 03:52:48;;;;;;;1.85;0.43;;;14.20;99.90;;;;;;7405692;19;19926;-88
2022/10/16 04:04:32;;;;;;;4.55;0.70;;;14.10;99.90;;;;;;7403155;19;19922;-88
2022/10/16 04:07:26;;;;;;;3.47;0.68;;;14.00;99.90;;;;;;7406442;19;19914;-88
2022/10/16 04:12:43;;;;;;;1.52;0.80;;;14.00;99.90;;;;;;7406367;19;19918;-89
2022/10/16 04:21:46;;;;;;;3.08;0.50;;;13.90;99.90;;;;;;7404093;19;20325;-88
2022/10/16 04:24:15;;;;;;;2.67;0.43;;;13.80;99.90;;;;;;7403865;19;19914;-87
2022/10/16 04:26:45;;;;;;;4.13;1.20;;;13.80;99.90;;;;;;7407489;19;19919;-87
2022/10/16 04:29:14;;;;;;;4.38;0.52;;;13.80;99.90;;;;;;7404528;19;19918;-88
2022/10/16 04:31:43;;;;;;;4.80;1.63;;;13.70;99.90;;;;;;7404320;19;19993;-88
2022/10/16 04:34:14;;;;;;;2.78;0.98;;;13.70;99.90;;;;;;7404464;19;19915;-88
2022/10/16 04:36:43;;;;;;;2.78;0.90;;;13.60;99.90;;;;;;7403809;19;19911;-88
2022/10/16 04:39:12;;;;;;;2.80;0.98;;;13.60;99.90;;;;;;7403145;19;19915;-89
2022/10/16 04:41:41;;;;;;;3.03;0.60;;;13.60;99.90;;;;;;7404068;19;19914;-88
2022/10/16 04:44:10;;;;;;;2.70;0.93;;;13.50;99.90;;;;;;7403976;19;19935;-88
2022/10/16 04:46:39;;;;;;;3.17;0.80;;;13.50;99.90;;;;;;7403948;19;19919;-88
2022/10/16 04:49:08;;;;;;;1.80;1.05;;;13.60;99.90;;;;;;7401459;19;20327;-88
2022/10/16 04:51:39;;;;;;;2.83;1.13;;;13.50;99.90;;;;;;7404718;19;19918;-88
2022/10/16 04:54:08;;;;;;;8.98;0.85;;;13.50;99.90;;;;;;7406231;19;20301;-88
2022/10/16 04:56:43;;;;;;;3.30;1.08;;;13.60;99.90;;;;;;7409312;19;19921;-88
2022/10/16 04:59:12;;;;;;;2.25;0.50;;;13.50;99.90;;;;;;7407478;19;19918;-88
2022/10/16 05:01:41;;;;;;;3.05;1.02;;;13.50;99.90;;;;;;7406854;19;19919;-88
2022/10/16 05:04:10;;;;;;;2.03;1.05;;;13.60;99.90;;;;;;7406601;19;19939;-88
2022/10/16 05:06:42;;;;;;;2.58;0.80;;;13.70;99.90;;;;;;7407287;19;19978;-88
2022/10/16 05:09:11;;;;;;;1.65;0.47;;;13.60;99.90;;;;;;7405043;19;20264;-88
2022/10/16 05:11:40;;;;;;;;;;;13.60;99.90;;;;;;7409314;19;20363;-88
2022/10/16 05:14:09;;;;;;;2.33;0.82;;;13.60;99.90;;;;;;7407094;19;19927;-88
2022/10/16 05:16:38;;;;;;;2.72;0.75;;;13.60;99.90;;;;;;7406572;19;19983;-88
2022/10/16 05:19:07;;;;;;;4.07;1.15;;;13.60;99.90;;;;;;7406818;19;19919;-88
2022/10/16 05:21:36;;;;;;;1.75;0.40;;;13.60;99.90;;;;;;7406897;19;19986;-89
2022/10/16 05:24:07;;;;;;;2.92;0.90;;;13.80;99.90;;;;;;7407739;19;19939;-88
2022/10/16 05:26:36;;;;;;;3.72;0.70;;;13.90;99.90;;;;;;7406002;19;19922;-88
2022/10/16 05:29:06;;;;;;;2.88;1.02;;;14.00;99.90;;;;;;7405136;19;19911;-88
2022/10/16 05:31:35;;;;;;;3.15;0.85;;;14.00;99.90;;;;;;7406272;19;19914;-88
2022/10/16 05:34:04;;;;;;;3.40;0.82;;;14.00;99.90;;;;;;7406110;19;19925;-88
2022/10/16 05:36:33;;;;;;;4.55;0.75;;;14.10;99.90;;;;;;7406073;19;19978;-88
2022/10/16 05:39:02;;;;;;;2.70;1.25;;;14.10;99.90;;;;;;7406223;19;19907;-88
2022/10/16 05:41:34;;;;;;;2.70;1.00;;;14.10;99.90;;;;;;7405855;19;19911;-88
2022/10/16 05:44:03;;;;;;;1.90;0.88;;;14.00;99.90;;;;;;7405895;19;20334;-89
2022/10/16 05:46:31;;;;;;;2.67;0.70;;;14.00;99.90;;;;;;7405849;19;19918;-89
2022/10/16 05:49:00;;;;;;;2.63;1.10;;;14.00;99.90;;;;;;7403577;19;19911;-88
2022/10/16 05:51:29;;;;;;;3.55;1.25;;;14.00;99.90;;;;;;7404257;19;19929;-88
2022/10/16 05:53:58;;;;;;;3.38;0.80;;;13.90;99.90;;;;;;7404680;19;19931;-88
2022/10/16 05:56:28;;;;;;;2.97;0.82;;;13.90;99.90;;;;;;7405286;19;19980;-88
2022/10/16 05:58:59;;;;;;;2.22;0.35;;;13.90;99.90;;;;;;7405490;19;19922;-88
2022/10/16 06:01:28;;;;;;;4.30;1.40;;;13.90;99.90;;;;;;7405979;19;19922;-87
2022/10/16 06:03:57;;;;;;;4.68;1.27;;;13.90;99.90;;;;;;7404972;19;19914;-87
2022/10/16 06:06:29;;;;;;;2.25;0.90;;;13.90;99.90;;;;;;7404183;19;20324;-88
2022/10/16 06:09:00;;;;;;;3.47;0.75;;;13.80;99.90;;;;;;7404261;19;19926;-89
2022/10/16 06:11:31;;;;;;;3.50;0.73;;;13.80;99.90;;;;;;7405461;19;19914;-88
2022/10/16 06:14:06;;;;;;;2.58;1.30;;;13.80;99.90;;;;;;7404936;19;19919;-87
2022/10/16 06:16:36;;;;;;;2.20;1.02;;;13.90;99.90;;;;;;7404878;19;20335;-89
2022/10/16 06:19:08;;;;;;;2.63;1.20;;;13.90;99.90;;;;;;7404889;19;19914;-88
2022/10/16 06:21:37;;;;;;;3.42;1.27;;;13.90;99.90;;;;;;7405172;19;19914;-88
2022/10/16 06:24:06;;;;;;;3.17;0.70;;;13.90;99.90;;;;;;7405844;19;19932;-88
2022/10/16 06:26:35;;;;;;;2.92;0.50;;;13.90;99.90;;;;;;7404223;19;19914;-88
2022/10/16 06:29:07;;;;;;;3.05;0.95;;;13.90;99.90;;;;;;7403757;19;19929;-88
2022/10/16 06:31:36;;;;;;;3.25;0.98;;;13.90;99.90;;;;;;7404568;19;19935;-88
2022/10/16 06:34:09;;;;;;;5.18;1.33;;;14.00;99.90;;;;;;7404538;19;20252;-88
2022/10/16 06:36:38;;;;;;;3.13;1.15;;;14.00;99.90;;;;;;7404664;19;19914;-88
2022/10/16 06:39:07;;;;;;;4.93;1.65;;;14.10;99.90;;;;;;7404380;19;20259;-88
2022/10/16 06:41:38;;;;;;;3.78;1.27;;;14.00;99.90;;;;;;7404268;19;19918;-88
2022/10/16 06:44:11;;;;;;;2.53;0.98;;;14.10;99.90;;;;;;7404293;19;19921;-88
2022/10/16 06:46:40;;;;;;;2.58;1.05;;;14.10;99.90;;;;;;7404351;19;20340;-88
2022/10/16 06:49:09;;;;;;;4.95;1.92;;;14.10;99.90;;;;;;7403331;19;20336;-88
2022/10/16 06:51:40;;;;;;;2.65;0.57;;;14.20;99.90;;;;;;7404107;19;19995;-89
2022/10/16 06:54:09;;;;;;;5.63;0.98;;;14.10;99.90;;;;;;7405832;19;19927;-88
2022/10/16 06:56:38;;;;;;;4.22;1.40;;;14.10;99.90;;;;;;7403475;19;20373;-88
2022/10/16 06:59:10;;;;;;;3.58;0.98;;;14.20;99.90;;;;;;7403564;19;20322;-88
2022/10/16 07:01:39;;;;;;;3.60;1.00;;;14.30;99.90;;;;;;7406587;19;19923;-88
2022/10/16 07:07:03;;;;;;;2.35;0.45;;;14.30;99.90;;;;;;7406157;19;20328;-88
2022/10/16 07:09:32;;;;;;;2.63;1.10;;;14.20;99.90;;;;;;7404387;19;19926;-88
2022/10/16 07:12:01;;;;;;;1.67;0.47;;;14.20;99.90;;;;;;7406604;19;19918;-87
2022/10/16 07:14:32;;;;;;;3.72;1.33;;;14.20;99.90;;;;;;7406232;19;20028;-88
2022/10/16 07:17:01;;;;;;;5.03;1.92;;;14.30;99.90;;;;;;7406284;19;19923;-88
2022/10/16 07:19:30;;;;;;;2.17;1.08;;;14.40;99.90;;;;;;7406631;19;19918;-88
2022/10/16 07:21:59;;;;;;;3.63;0.90;;;14.50;99.90;;;;;;7406755;19;19921;-88
2022/10/16 07:24:28;;;;;;;4.10;0.43;;;14.50;99.90;;;;;;7410285;19;20416;-88
2022/10/16 07:26:57;;;;;;;3.38;0.98;;;14.60;99.90;;;;;;7405878;19;19919;-89
2022/10/16 07:29:26;;;;;;;1.77;0.52;;;14.60;99.90;;;;;;7404226;19;19926;-88
2022/10/16 07:31:58;;;;;;;3.67;0.68;;;14.70;99.90;;;;;;7405626;19;19927;-88
2022/10/16 07:34:27;;;;;;;2.95;0.68;;;14.80;99.90;;;;;;7406170;19;19910;-88
2022/10/16 07:36:56;;;;;;;4.03;1.02;;;14.80;99.90;;;;;;7405621;19;19915;-89
2022/10/16 07:39:25;;;;;;;4.10;1.58;;;14.90;99.90;;;;;;7405717;19;19949;-89
2022/10/16 07:41:54;;;;;;;2.10;0.75;;;14.90;99.90;;;;;;7405502;19;19923;-88
2022/10/16 07:44:23;;;;;;;2.90;0.88;;;15.00;99.90;;;;;;7405599;19;19922;-89
2022/10/16 07:46:52;;;;;;;2.13;0.40;;;15.30;99.90;;;;;;7405257;19;20037;-89
2022/10/16 07:49:23;;;;;;;3.25;0.82;;;15.40;99.90;;;;;;7404100;19;19919;-88
2022/10/16 07:51:52;;;;;;;2.20;0.77;;;15.40;99.90;;;;;;7405668;19;19978;-88
2022/10/16 07:54:21;;;;;;;3.05;1.05;;;15.40;99.90;;;;;;7404276;19;19923;-89
2022/10/16 07:56:50;;;;;;;3.00;0.45;;;15.40;99.90;;;;;;7405694;19;19918;-89
2022/10/16 07:59:19;;;;;;;2.83;1.15;;;15.40;99.90;;;;;;7409329;19;19914;-88
2022/10/16 08:01:48;;;;;;;3.83;0.93;;;15.30;99.90;;;;;;7409195;19;19922;-87
2022/10/16 08:04:17;;;;;;;2.13;0.90;;;15.40;99.90;;;;;;7408569;19;19942;-89
2022/10/16 08:06:49;;;;;;;4.65;0.55;;;15.30;99.90;;;;;;7406360;19;20324;-88
2022/10/16 08:09:18;;;;;;;2.35;0.65;;;15.40;99.90;;;;;;7406996;19;19911;-88
2022/10/16 08:11:47;;;;;;;2.13;1.20;;;15.30;99.90;;;;;;7408532;19;19919;-88
2022/10/16 08:14:16;;;;;;;2.30;0.82;;;15.30;99.90;;;;;;7406976;19;19922;-87
2022/10/16 08:16:45;;;;;;;2.47;0.93;;;15.40;99.90;;;;;;7408409;19;19918;-87
2022/10/16 08:19:15;;;;;;;4.75;0.40;;;15.40;99.90;;;;;;7408602;19;19974;-89
2022/10/16 08:21:44;;;;;;;1.88;0.45;;;15.40;99.90;;;;;;7409892;19;20232;-88
2022/10/16 08:24:15;;;;;;;3.17;0.77;;;15.40;99.90;;;;;;7408034;19;19923;-88
2022/10/16 08:26:44;;;;;;;1.90;0.45;;;15.50;99.90;;;;;;7407700;19;19918;-88
2022/10/16 08:29:13;;;;;;;2.85;0.68;;;15.50;99.90;;;;;;7407276;19;20344;-88
2022/10/16 08:31:42;;;;;;;6.38;1.90;;;15.60;99.90;;;;;;7407800;19;19919;-88
2022/10/16 08:34:12;;;;;;;3.67;0.47;;;15.60;99.90;;;;;;7407967;19;19918;-88
2022/10/16 08:36:41;;;;;;;1.48;0.40;;;15.70;99.90;;;;;;7407670;19;20274;-88
2022/10/16 08:39:10;;;;;;;2.88;0.50;;;15.70;99.90;;;;;;7408046;19;20318;-89
2022/10/16 08:42:12;;;;;;;2.58;0.30;;;15.80;99.90;;;;;;7408637;19;19918;-89
2022/10/16 08:45:19;;;;;;;2.83;0.47;;;15.80;99.90;;;;;;7407430;19;20384;-88
2022/10/16 08:47:54;;;;;;;4.25;0.80;;;15.80;99.90;;;;;;7407041;19;19939;-88
2022/10/16 08:50:27;;;;;;;2.70;1.00;;;15.90;99.90;;;;;;7405408;19;19982;-88
2022/10/16 08:52:57;;;;;;;2.55;0.40;;;16.00;99.90;;;;;;7406657;19;20557;-89
2022/10/16 08:55:34;;;;;;;1.83;0.82;;;15.90;99.90;;;;;;7407561;19;19919;-89
2022/10/16 08:58:14;;;;;;;3.15;0.85;;;16.00;99.90;;;;;;7407293;19;19978;-89
2022/10/16 09:00:44;;;;;;;3.53;0.40;;;16.10;99.90;;;;;;7406862;19;19931;-88
2022/10/16 09:03:26;;;;;;;3.70;0.93;;;16.20;99.90;;;;;;7407154;19;19942;-88
2022/10/16 09:06:24;;;;;;;3.55;0.52;;;16.30;99.90;;;;;;7405180;19;19918;-88
2022/10/16 09:09:07;;;;;;;2.72;0.63;;;16.30;99.90;;;;;;7406309;19;19915;-88
2022/10/16 09:11:47;;;;;;;3.50;0.30;;;16.30;99.90;;;;;;7406983;19;20309;-88
2022/10/16 09:14:39;;;;;;;3.13;0.75;;;16.20;99.90;;;;;;7406900;19;19935;-88
2022/10/16 09:17:22;;;;;;;1.58;0.50;;;16.20;99.90;;;;;;7406693;19;19924;-89
2022/10/16 09:19:56;;;;;;;4.00;0.40;;;16.20;99.90;;;;;;7407111;19;19919;-88
2022/10/16 09:22:30;;;;;;;3.03;0.43;;;16.20;99.90;;;;;;7406690;19;19918;-88
2022/10/16 09:25:03;;;;;;;3.72;1.05;;;16.30;99.90;;;;;;7406113;19;19930;-89
2022/10/16 09:27:32;;;;;;;3.08;0.50;;;16.50;99.90;;;;;;7406661;19;19914;-89
2022/10/16 09:30:03;;;;;;;3.13;0.30;;;16.70;99.90;;;;;;7405241;19;20248;-89
2022/10/16 09:32:33;;;;;;;4.00;0.32;;;16.80;99.90;;;;;;7406444;19;19935;-88
2022/10/16 09:35:03;;;;;;;3.25;0.50;;;16.80;99.90;;;;;;7406456;19;19918;-88
2022/10/16 09:37:33;;;;;;;3.58;0.50;;;16.80;99.90;;;;;;7406406;19;19922;-88
2022/10/16 09:40:07;;;;;;;3.20;0.50;;;17.00;99.90;;;;;;7406301;19;19966;-88
2022/10/16 09:42:43;;;;;;;4.18;0.60;;;17.10;99.90;;;;;;7405894;19;20297;-88
2022/10/16 09:45:26;;;;;;;1.67;0.28;;;17.10;99.90;;;;;;7405833;19;20261;-88
2022/10/16 09:47:56;;;;;;;3.65;0.30;;;17.00;99.90;;;;;;7406137;19;19911;-89
2022/10/16 09:50:27;;;;;;;3.65;0.75;;;16.90;99.90;;;;;;7407249;19;19915;-88
2022/10/16 09:53:07;;;;;;;2.13;0.60;;;16.80;99.90;;;;;;7405708;19;19970;-88
2022/10/16 09:55:36;;;;;;;1.95;0.60;;;16.80;99.90;;;;;;7405177;19;19922;-88
2022/10/16 09:58:05;;;;;;;2.13;0.47;;;16.90;99.90;;;;;;7405929;19;19943;-88
2022/10/16 10:00:37;;;;;;;4.55;0.77;;;17.00;99.90;;;;;;7405908;19;19911;-88
2022/10/16 10:03:13;;;;;;;4.95;1.10;;;17.10;99.90;;;;;;7405388;19;20340;-88
2022/10/16 10:05:43;;;;;;;6.72;0.70;;;17.20;99.90;;;;;;7404222;19;19928;-87
2022/10/16 10:08:20;;;;;;;5.38;0.93;;;17.30;99.90;;;;;;7405703;19;19996;-89
2022/10/16 10:10:54;;;;;;;1.70;0.35;;;17.20;99.90;;;;;;7403906;19;19923;-87
2022/10/16 10:13:26;;;;;;;2.65;0.65;;;17.20;99.90;;;;;;7405644;19;19914;-88
2022/10/16 10:15:58;;;;;;;2.58;0.68;;;17.20;99.90;;;;;;7405546;19;19919;-87
2022/10/16 10:18:27;;;;;;;5.93;0.65;;;17.10;99.90;;;;;;7404938;19;19922;-87
2022/10/16 10:21:05;;;;;;;5.88;0.88;;;17.10;99.90;;;;;;7404019;19;19918;-87
2022/10/16 10:23:34;;;;;;;4.55;0.90;;;17.00;99.90;;;;;;7406214;19;19910;-86
2022/10/16 10:26:10;;;;;;;6.65;0.55;;;16.90;99.90;;;;;;7405270;19;19919;-88
2022/10/16 10:28:50;;;;;;;6.35;1.00;;;17.00;99.90;;;;;;7405050;19;19914;-88
2022/10/16 10:31:28;;;;;;;5.38;0.90;;;17.10;99.90;;;;;;7404763;19;19919;-88
2022/10/16 10:34:02;;;;;;;4.72;0.50;;;17.20;99.90;;;;;;7404407;19;19925;-88
2022/10/16 10:36:38;;;;;;;6.13;1.10;;;17.50;99.90;;;;;;7402798;19;19922;-87
2022/10/16 10:39:16;;;;;;;5.78;0.40;;;17.60;99.90;;;;;;7404025;19;20249;-87
2022/10/16 10:42:15;;;;;;;5.82;0.55;;;17.80;99.90;;;;;;7404297;19;19914;-89
2022/10/16 10:45:14;;;;;;;3.63;0.45;;;17.80;99.90;;;;;;7404842;19;19914;-87
2022/10/16 10:47:55;;;;;;;5.45;0.65;;;17.90;99.90;;;;;;7404648;19;19921;-87
2022/10/16 10:50:30;;;;;;;5.65;0.88;;;17.90;99.90;;;;;;7403346;19;19935;-87
2022/10/16 10:53:09;;;;;;;9.43;1.10;;;18.00;99.90;;;;;;7404286;19;19911;-88
2022/10/16 10:55:45;;;;;;;6.07;0.30;;;18.10;99.90;;;;;;7403641;19;19918;-88
2022/10/16 10:58:39;;;;;;;6.28;0.85;;;18.10;99.90;;;;;;7404253;19;19926;-88
2022/10/16 11:01:13;;;;;;;5.93;1.00;;;18.20;99.90;;;;;;7403971;19;19939;-87
2022/10/16 11:04:07;;;;;;;6.22;1.15;;;18.10;99.90;;;;;;7403510;19;20329;-87
2022/10/16 11:06:38;;;;;;;;;;;18.10;99.90;;;;;;7404651;19;19951;-87
2022/10/16 11:09:15;;;;;;;3.47;0.63;;;18.00;99.90;;;;;;7403559;19;19914;-88
2022/10/16 11:11:49;;;;;;;3.47;0.55;;;17.90;99.90;;;;;;7403922;19;19978;-87
2022/10/16 11:14:22;;;;;;;5.10;0.65;;;17.80;99.90;;;;;;7403366;19;19914;-88
2022/10/16 11:16:58;;;;;;;4.03;0.40;;;17.70;99.90;;;;;;7403583;19;19948;-87
2022/10/16 11:19:39;;;;;;;5.35;1.25;;;17.50;99.90;;;;;;7403245;19;19974;-87
2022/10/16 11:22:16;;;;;;;8.50;0.47;;;17.50;99.90;;;;;;7403182;19;19933;-87
2022/10/16 11:24:51;;;;;;;7.38;0.70;;;17.50;99.90;;;;;;7403152;19;20282;-88
2022/10/16 11:27:23;;;;;;;5.97;1.00;;;17.60;99.90;;;;;;7402921;19;19924;-87
2022/10/16 11:30:00;;;;;;;6.70;0.90;;;17.70;99.90;;;;;;7402066;19;19978;-87
2022/10/16 11:32:34;;;;;;;6.03;0.82;;;17.70;99.90;;;;;;7402939;19;19925;-87
2022/10/16 11:35:16;;;;;;;5.28;0.70;;;17.70;99.90;;;;;;7402178;19;19918;-87
2022/10/16 11:37:48;;;;;;;3.42;0.40;;;17.60;99.90;;;;;;7402919;19;19918;-87
2022/10/16 11:40:27;;;;;;;6.82;0.93;;;17.50;99.90;;;;;;7402405;19;19917;-88
2022/10/16 11:43:02;;;;;;;3.58;0.60;;;17.40;99.90;;;;;;7402608;19;19907;-88
2022/10/16 11:45:37;;;;;;;4.45;0.35;;;17.40;99.90;;;;;;7402204;19;19922;-87
2022/10/16 11:48:18;;;;;;;6.78;1.10;;;17.20;99.90;;;;;;7409149;19;19951;-87
2022/10/16 11:50:55;;;;;;;4.75;0.88;;;17.20;99.90;;;;;;7407818;19;19914;-88
2022/10/16 11:53:37;;;;;;;5.43;1.38;;;17.20;99.90;;;;;;7408469;19;19923;-87
2022/10/16 11:56:07;;;;;;;5.10;1.23;;;17.20;99.90;;;;;;7408812;19;19922;-87
2022/10/16 11:58:43;;;;;;;4.72;0.82;;;17.40;99.90;;;;;;7408770;19;19947;-87
2022/10/16 12:01:21;;;;;;;4.70;0.50;;;17.60;99.90;;;;;;7409160;19;19915;-87
2022/10/16 12:04:02;;;;;;;7.20;0.68;;;17.80;99.90;;;;;;7409054;19;19918;-87
2022/10/16 12:06:40;;;;;;;6.85;0.80;;;18.00;99.90;;;;;;7406785;19;19914;-87
2022/10/16 12:09:17;;;;;;;5.85;0.52;;;18.00;99.90;;;;;;7408926;19;19938;-87
2022/10/16 12:11:46;;;;;;;5.18;0.85;;;18.00;99.90;;;;;;7403903;19;20336;-88
2022/10/16 12:14:37;;;;;;;6.60;0.55;;;18.10;99.90;;;;;;7408434;19;20265;-87
2022/10/16 12:17:25;;;;;;;8.20;0.65;;;18.20;99.90;;;;;;7408601;19;19918;-87
2022/10/16 12:20:02;;;;;;;4.85;0.35;;;18.20;99.90;;;;;;7409994;19;19918;-87
2022/10/16 12:22:35;;;;;;;6.70;1.38;;;18.20;99.90;;;;;;7408174;19;19915;-87
2022/10/16 12:25:04;;;;;;;4.88;0.93;;;18.20;99.90;;;;;;7407684;19;19998;-86
2022/10/16 12:27:35;;;;;;;4.68;0.82;;;18.20;99.90;;;;;;7407818;19;19946;-88
2022/10/16 12:30:06;;;;;;;4.93;0.93;;;18.30;99.90;;;;;;7407802;19;19918;-87
2022/10/16 12:32:37;;;;;;;2.72;0.35;;;18.30;99.90;;;;;;7409451;19;19918;-88
2022/10/16 12:35:19;;;;;;;4.38;0.73;;;18.30;99.90;;;;;;7408532;19;19927;-87
2022/10/16 12:37:53;;;;;;;4.40;0.75;;;18.30;99.90;;;;;;7407861;19;19915;-88
2022/10/16 12:40:34;;;;;;;4.55;0.73;;;18.40;99.90;;;;;;7408144;19;19919;-87
2022/10/16 12:43:15;;;;;;;5.32;1.05;;;18.40;99.90;;;;;;7407918;19;20352;-87
2022/10/16 12:45:46;;;;;;;5.95;0.30;;;18.40;99.90;;;;;;7407999;19;19918;-88
2022/10/16 12:48:24;;;;;;;4.10;0.77;;;18.40;99.90;;;;;;7409670;19;20015;-87
2022/10/16 12:50:56;;;;;;;5.38;0.70;;;18.40;99.90;;;;;;7406570;19;19919;-88
2022/10/16 12:53:31;;;;;;;5.88;0.88;;;18.40;99.90;;;;;;7406730;19;19932;-87
2022/10/16 12:56:07;;;;;;;5.05;0.80;;;18.30;99.90;;;;;;7406918;19;19938;-87
2022/10/16 12:58:54;;;;;;;3.55;0.50;;;18.20;99.90;;;;;;7405971;19;19943;-88
2022/10/16 13:01:36;;;;;;;6.57;0.70;;;18.20;99.90;;;;;;7407239;19;19918;-88
2022/10/16 13:04:31;;;;;;;6.70;0.50;;;18.40;99.90;;;;;;7407287;19;19939;-87
2022/10/16 13:07:11;;;;;;;3.85;0.50;;;18.40;99.90;;;;;;7407436;19;19917;-88
2022/10/16 13:09:56;;;;;;;5.38;1.05;;;18.50;99.90;;;;;;7406995;19;19915;-87
2022/10/16 13:12:57;;;;;;;3.78;0.57;;;18.60;99.90;;;;;;7407255;19;19974;-88
2022/10/16 13:15:36;;;;;;;6.22;0.80;;;18.50;99.90;;;;;;7406930;19;19966;-88
2022/10/16 13:18:15;;;;;;;6.95;0.75;;;18.60;99.90;;;;;;7409258;19;19929;-88
2022/10/16 13:21:02;;;;;;;2.35;0.50;;;18.60;99.90;;;;;;7407076;19;19915;-88
2022/10/16 13:23:35;;;;;;;;;;;18.60;99.90;;;;;;7409239;19;20612;-88
2022/10/16 13:26:18;;;;;;;5.90;1.15;;;18.60;99.90;;;;;;7406317;19;19922;-87
2022/10/16 13:28:48;;;;;;;6.45;0.95;;;18.40;99.90;;;;;;7406752;19;19935;-88
2022/10/16 13:31:22;;;;;;;4.97;0.80;;;18.40;99.90;;;;;;7405495;19;19914;-87
2022/10/16 13:33:54;;;;;;;5.25;1.02;;;18.40;99.90;;;;;;7406279;19;19960;-87
2022/10/16 13:36:26;;;;;;;5.53;0.95;;;18.50;99.90;;;;;;7406149;19;19966;-88
2022/10/16 13:39:09;;;;;;;5.43;1.10;;;18.50;99.90;;;;;;7405931;19;19993;-88
2022/10/16 13:41:40;;;;;;;5.25;0.32;;;18.50;99.90;;;;;;7406363;19;19914;-88
2022/10/16 13:44:17;;;;;;;6.75;1.02;;;18.60;99.90;;;;;;7406114;19;19936;-88
2022/10/16 13:46:47;;;;;;;4.50;0.60;;;18.50;99.90;;;;;;7406032;19;20301;-87
2022/10/16 13:49:19;;;;;;;8.63;1.13;;;18.60;99.90;;;;;;7410175;19;19919;-88
2022/10/16 13:51:57;;;;;;;4.78;0.80;;;18.50;99.90;;;;;;7404814;19;19918;-87
2022/10/16 13:54:28;;;;;;;5.35;1.20;;;18.50;99.90;;;;;;7404555;19;19919;-87
2022/10/16 13:57:07;;;;;;;6.20;0.60;;;18.50;99.90;;;;;;7405199;19;20271;-88
2022/10/16 13:59:38;;;;;;;6.10;1.15;;;18.60;99.90;;;;;;7405513;19;20257;-88
2022/10/16 14:02:18;;;;;;;6.72;0.98;;;18.60;99.90;;;;;;7405570;19;19919;-87
2022/10/16 14:04:48;;;;;;;5.00;0.63;;;18.60;99.90;;;;;;7405520;19;19943;-87
2022/10/16 14:07:21;;;;;;;;;;;18.60;99.90;;;;;;7408072;19;19932;-88
2022/10/16 14:09:52;;;;;;;5.07;0.45;;;18.60;99.90;;;;;;7405069;19;19943;-87
2022/10/16 14:12:25;;;;;;;4.05;0.93;;;18.60;99.90;;;;;;7401839;19;20248;-88
2022/10/16 14:14:56;;;;;;;4.35;0.52;;;18.50;99.90;;;;;;7405472;19;19919;-88
2022/10/16 14:17:28;;;;;;;5.57;1.20;;;18.50;99.90;;;;;;7409865;19;19922;-88
2022/10/16 14:19:59;;;;;;;4.15;0.82;;;18.40;99.90;;;;;;7404843;19;19919;-87
2022/10/16 14:22:33;;;;;;;3.47;0.70;;;18.40;99.90;;;;;;7405365;19;19918;-87
2022/10/16 14:25:03;;;;;;;6.38;1.20;;;18.40;99.90;;;;;;7404355;19;19981;-88
2022/10/16 14:27:37;;;;;;;4.80;0.57;;;18.30;99.90;;;;;;7405014;19;20270;-88
2022/10/16 14:30:16;;;;;;;4.30;0.68;;;18.30;99.90;;;;;;7405102;19;19922;-88
2022/10/16 14:32:56;;;;;;;4.85;0.50;;;18.30;99.90;;;;;;7404363;19;19931;-88
2022/10/16 14:35:31;;;;;;;4.82;0.70;;;18.30;99.90;;;;;;7404711;19;19922;-88
2022/10/16 14:38:02;;;;;;;4.65;1.00;;;18.30;99.90;;;;;;7404785;19;19917;-88
2022/10/16 14:40:33;;;;;;;4.88;0.95;;;18.10;99.90;;;;;;7404485;19;19919;-88
2022/10/16 14:43:06;;;;;;;4.43;0.80;;;18.00;99.90;;;;;;7404505;19;19926;-88
2022/10/16 14:45:40;;;;;;;4.80;1.13;;;17.90;99.90;;;;;;7404263;19;19966;-88
2022/10/16 14:48:20;;;;;;;4.97;0.60;;;17.80;99.90;;;;;;7409128;19;20352;-88
2022/10/16 14:50:49;;;;;;;5.35;0.63;;;17.70;99.90;;;;;;7403724;19;19923;-88
2022/10/16 14:53:19;;;;;;;9.00;1.20;;;17.60;99.90;;;;;;7403935;19;20249;-88
2022/10/16 14:55:50;;;;;;;7.15;0.80;;;17.60;99.90;;;;;;7403555;19;19914;-88
2022/10/16 14:58:26;;;;;;;4.97;0.63;;;17.50;99.90;;;;;;7404275;19;19918;-87
2022/10/16 15:00:55;;;;;;;5.82;1.15;;;17.40;99.90;;;;;;7404452;19;19990;-88
2022/10/16 15:03:24;;;;;;;3.53;0.52;;;17.40;99.90;;;;;;7403889;19;19929;-87
2022/10/16 15:05:52;;;;;;;7.10;1.25;;;17.30;99.90;;;;;;7403039;19;19923;-88
2022/10/16 15:08:21;;;;;;;5.82;0.82;;;17.20;99.90;;;;;;7403229;19;19978;-87
2022/10/16 15:10:50;;;;;;;9.80;0.90;;;17.20;99.90;;;;;;7403741;19;20324;-88
2022/10/16 15:13:22;;;;;;;6.18;0.90;;;17.10;99.90;;;;;;7403338;19;19978;-88
2022/10/16 15:15:51;;;;;;;5.70;0.77;;;17.10;99.90;;;;;;7404695;19;19935;-88
2022/10/16 15:18:21;;;;;;;7.15;1.23;;;17.00;99.90;;;;;;7402679;19;19910;-88
2022/10/16 15:20:52;;;;;;;7.70;1.10;;;16.90;99.90;;;;;;7403135;19;19915;-88
2022/10/16 15:23:22;;;;;;;6.38;1.45;;;16.90;99.90;;;;;;7408186;19;19922;-88
2022/10/16 15:25:53;;;;;;;5.57;1.67;;;16.90;99.90;;;;;;7409759;19;20348;-88
2022/10/16 15:28:26;;;;;;;7.22;1.05;;;16.90;99.90;;;;;;7409877;19;19929;-88
2022/10/16 15:30:59;;;;;;;10.93;1.38;;;16.80;99.90;;;;;;7409207;19;20321;-88
2022/10/16 15:33:33;;;;;;;7.25;1.50;;;16.80;99.90;;;;;;7409654;19;19914;-88
2022/10/16 15:36:03;;;;;;;4.78;1.08;;;16.80;99.90;;;;;;7409428;19;20353;-88
2022/10/16 15:38:33;;;;;;;5.82;0.80;;;16.70;99.90;;;;;;7409925;19;19938;-88
2022/10/16 15:41:02;;;;;;;6.93;0.88;;;16.70;99.90;;;;;;7409397;19;20779;-88
2022/10/16 15:43:34;;;;;;;7.68;1.88;;;16.70;99.90;;;;;;7409586;19;19933;-88
2022/10/16 15:46:05;;;;;;;6.47;1.25;;;16.60;99.90;;;;;;7413129;19;19984;-88